createdAt,value
2019-04-05T00:00:42.027Z,14.63
2019-04-05T00:03:11.326Z,13.45
2019-04-05T00:05:40.730Z,13.93
2019-04-05T00:08:10.060Z,12.70
2019-04-05T00:10:39.371Z,14.70
2019-04-05T00:13:09.147Z,14.33
2019-04-05T00:15:38.458Z,13.90
2019-04-05T00:18:07.766Z,13.83
2019-04-05T00:20:37.101Z,14.47
2019-04-05T00:23:06.398Z,13.83
2019-04-05T00:25:35.702Z,16.40
2019-04-05T00:28:05.000Z,15.15
2019-04-05T00:30:34.351Z,14.03
2019-04-05T00:33:03.606Z,16.57
2019-04-05T00:35:32.882Z,15.85
2019-04-05T00:38:02.156Z,16.67
2019-04-05T00:40:31.452Z,14.40
2019-04-05T00:43:00.736Z,13.68
2019-04-05T00:45:30.135Z,14.30
2019-04-05T00:47:59.400Z,15.10
2019-04-05T00:50:28.710Z,16.23
2019-04-05T00:52:57.966Z,15.45
2019-04-05T00:55:27.278Z,15.48
2019-04-05T00:57:56.629Z,15.18
2019-04-05T01:00:25.923Z,16.50
2019-04-05T01:02:55.183Z,17.30
2019-04-05T01:05:24.492Z,17.43
2019-04-05T01:07:53.762Z,16.77
2019-04-05T01:10:23.243Z,15.93
2019-04-05T01:12:52.749Z,15.93
2019-04-05T01:15:22.069Z,16.73
2019-04-05T01:17:51.577Z,18.55
2019-04-05T01:20:25.061Z,15.53
2019-04-05T01:22:54.519Z,17.67
2019-04-05T01:25:23.838Z,17.77
2019-04-05T01:27:53.146Z,18.92
2019-04-05T01:30:22.431Z,17.67
2019-04-05T01:32:51.689Z,18.77
2019-04-05T01:35:21.010Z,19.67
2019-04-05T01:37:50.652Z,17.82
2019-04-05T01:40:19.899Z,20.10
2019-04-05T01:42:49.955Z,20.40
2019-04-05T01:45:19.447Z,18.33
2019-04-05T01:47:48.737Z,20.52
2019-04-05T01:50:18.152Z,20.47
2019-04-05T01:52:47.779Z,22.45
2019-04-05T01:55:17.084Z,19.60
2019-04-05T01:57:46.368Z,20.75
2019-04-05T02:00:15.959Z,20.37
2019-04-05T02:02:45.357Z,18.80
2019-04-05T02:05:14.904Z,20.60
2019-04-05T02:07:44.610Z,20.20
2019-04-05T02:10:14.063Z,21.37
2019-04-05T02:12:43.389Z,22.62
2019-04-05T02:15:26.581Z,21.97
2019-04-05T02:17:56.588Z,23.60
2019-04-05T02:20:26.552Z,20.47
2019-04-05T02:22:55.857Z,21.42
2019-04-05T02:25:25.199Z,25.57
2019-04-05T02:27:54.611Z,21.33
2019-04-05T02:30:24.423Z,22.87
2019-04-05T02:32:53.879Z,22.15
2019-04-05T02:35:23.310Z,23.90
2019-04-05T02:37:52.565Z,20.05
2019-04-05T02:40:23.632Z,21.53
2019-04-05T02:42:55.715Z,21.93
2019-04-05T02:45:27.697Z,22.70
2019-04-05T02:48:00.496Z,22.27
2019-04-05T02:50:33.071Z,23.15
2019-04-05T02:53:05.328Z,23.40
2019-04-05T02:55:35.713Z,23.30
2019-04-05T02:58:06.161Z,24.52
2019-04-05T03:00:35.881Z,25.12
2019-04-05T03:03:06.224Z,24.18
2019-04-05T03:05:36.603Z,28.30
2019-04-05T03:08:06.297Z,26.37
2019-04-05T03:10:57.525Z,24.57
2019-04-05T03:13:29.341Z,24.87
2019-04-05T03:16:01.584Z,27.43
2019-04-05T03:18:33.595Z,27.62
2019-04-05T03:21:06.542Z,26.90
2019-04-05T03:23:38.766Z,28.65
2019-04-05T03:26:11.109Z,27.75
2019-04-05T03:28:42.095Z,27.58
2019-04-05T03:31:12.019Z,29.98
2019-04-05T03:33:41.465Z,30.62
2019-04-05T03:36:10.969Z,27.55
2019-04-05T03:38:41.326Z,29.52
2019-04-05T03:41:10.703Z,31.25
2019-04-05T03:43:40.957Z,26.00
2019-04-05T03:46:10.275Z,24.27
2019-04-05T03:48:40.225Z,25.97
2019-04-05T03:51:10.160Z,26.95
2019-04-05T03:53:39.418Z,25.48
2019-04-05T03:56:09.018Z,24.18
2019-04-05T03:58:38.255Z,25.72
2019-04-05T04:01:07.962Z,25.75
2019-04-05T04:03:37.359Z,26.75
2019-04-05T04:06:06.644Z,26.93
2019-04-05T04:08:36.042Z,25.62
2019-04-05T04:11:05.870Z,25.77
2019-04-05T04:13:35.271Z,25.15
2019-04-05T04:16:05.311Z,27.70
2019-04-05T04:18:34.794Z,28.42
2019-04-05T04:21:10.253Z,25.75
2019-04-05T04:23:39.710Z,26.05
2019-04-05T04:26:08.962Z,24.60
2019-04-05T04:28:38.228Z,27.50
2019-04-05T04:31:08.038Z,27.13
2019-04-05T04:33:37.412Z,30.77
2019-04-05T04:36:06.681Z,27.00
2019-04-05T04:38:36.447Z,27.17
2019-04-05T04:41:05.881Z,25.95
2019-04-05T04:43:35.673Z,27.62
2019-04-05T04:46:05.222Z,26.85
2019-04-05T04:48:34.589Z,27.37
2019-04-05T04:51:04.260Z,27.82
2019-04-05T04:53:33.786Z,30.52
2019-04-05T04:56:03.114Z,31.00
2019-04-05T04:58:32.914Z,30.32
2019-04-05T05:01:02.267Z,29.95
2019-04-05T05:03:52.706Z,27.00
2019-04-05T05:06:21.924Z,30.75
2019-04-05T05:08:51.295Z,30.25
2019-04-05T05:11:21.027Z,32.58
2019-04-05T05:13:50.412Z,32.73
2019-04-05T05:16:19.890Z,30.27
2019-04-05T05:18:49.205Z,30.37
2019-04-05T05:21:18.457Z,30.82
2019-04-05T05:23:47.836Z,30.90
2019-04-05T05:26:17.324Z,31.80
2019-04-05T05:28:46.776Z,32.90
2019-04-05T05:31:16.147Z,31.30
2019-04-05T05:33:45.467Z,33.90
2019-04-05T05:36:15.156Z,31.23
2019-04-05T05:38:44.820Z,30.95
2019-04-05T05:41:14.195Z,31.30
2019-04-05T05:43:43.532Z,31.37
2019-04-05T05:46:12.865Z,32.40
2019-04-05T05:48:43.076Z,33.28
2019-04-05T05:51:12.574Z,33.10
2019-04-05T05:53:41.829Z,33.53
2019-04-05T05:56:11.120Z,34.98
2019-04-05T05:58:40.405Z,32.38
2019-04-05T06:01:09.675Z,31.95
2019-04-05T06:03:39.006Z,31.17
2019-04-05T06:06:08.276Z,31.45
2019-04-05T06:08:37.629Z,33.50
2019-04-05T06:11:07.070Z,31.30
2019-04-05T06:13:36.369Z,36.40
2019-04-05T06:16:05.864Z,35.00
2019-04-05T06:18:35.259Z,43.42
2019-04-05T06:21:04.664Z,40.12
2019-04-05T06:23:34.389Z,36.73
2019-04-05T06:26:04.097Z,40.55
2019-04-05T06:28:33.511Z,36.68
2019-04-05T06:31:02.759Z,40.60
2019-04-05T06:33:32.240Z,33.02
2019-04-05T06:36:01.551Z,32.88
2019-04-05T06:38:30.838Z,34.08
2019-04-05T06:41:01.857Z,35.48
2019-04-05T06:43:32.525Z,35.25
2019-04-05T06:46:01.979Z,35.25
2019-04-05T06:48:31.274Z,32.23
2019-04-05T06:51:00.733Z,33.17
2019-04-05T06:53:30.311Z,35.58
2019-04-05T06:56:00.378Z,31.45
2019-04-05T06:58:29.858Z,31.33
2019-04-05T07:00:59.222Z,29.18
2019-04-05T07:03:28.543Z,31.77
2019-04-05T07:05:57.961Z,30.92
2019-04-05T07:08:27.411Z,30.08
2019-04-05T07:10:56.860Z,30.65
2019-04-05T07:13:27.621Z,32.88
2019-04-05T07:15:57.010Z,28.40
2019-04-05T07:18:34.183Z,32.25
2019-04-05T07:20:58.032Z,32.13
2019-04-05T07:23:27.437Z,30.88
2019-04-05T07:25:56.852Z,30.75
2019-04-05T07:28:26.214Z,28.15
2019-04-05T07:30:55.528Z,28.90
2019-04-05T07:33:24.859Z,30.08
2019-04-05T07:35:54.236Z,27.82
2019-04-05T07:38:23.712Z,29.30
2019-04-05T07:40:53.031Z,30.62
2019-04-05T07:43:22.352Z,26.15
2019-04-05T07:45:51.671Z,29.25
2019-04-05T07:48:21.107Z,27.75
2019-04-05T07:50:50.471Z,27.30
2019-04-05T07:53:19.760Z,30.85
2019-04-05T07:55:49.136Z,29.57
2019-04-05T07:58:18.436Z,28.60
2019-04-05T08:00:50.573Z,28.10
2019-04-05T08:03:20.280Z,28.38
2019-04-05T08:05:51.094Z,32.65
2019-04-05T08:08:49.386Z,32.28
2019-04-05T08:11:18.866Z,34.83
2019-04-05T08:13:49.996Z,34.35
2019-04-05T08:16:19.282Z,37.78
2019-04-05T08:18:57.596Z,37.67
2019-04-05T08:21:19.613Z,36.33
2019-04-05T08:23:48.955Z,41.02
2019-04-05T08:26:18.234Z,37.85
2019-04-05T08:28:47.511Z,37.45
2019-04-05T08:31:16.831Z,38.28
2019-04-05T08:33:46.146Z,40.38
2019-04-05T08:36:16.696Z,38.83
2019-04-05T08:38:46.042Z,30.27
2019-04-05T08:41:15.350Z,33.60
2019-04-05T08:43:47.085Z,34.20
2019-04-05T08:46:15.735Z,34.10
2019-04-05T08:48:45.062Z,31.68
2019-04-05T08:51:17.305Z,33.05
2019-04-05T08:53:46.613Z,29.85
2019-04-05T08:56:16.035Z,30.25
2019-04-05T08:58:48.283Z,26.93
2019-04-05T09:01:17.645Z,27.85
2019-04-05T09:03:54.323Z,28.52
2019-04-05T09:06:24.689Z,28.33
2019-04-05T09:08:54.097Z,28.20
2019-04-05T09:11:23.408Z,26.62
2019-04-05T09:13:52.716Z,25.65
2019-04-05T09:16:22.047Z,24.70
2019-04-05T09:18:51.385Z,25.35
2019-04-05T09:21:20.736Z,26.43
2019-04-05T09:23:50.069Z,24.95
2019-04-05T09:26:19.407Z,24.82
2019-04-05T09:28:48.696Z,21.15
2019-04-05T09:31:18.048Z,18.98
2019-04-05T09:33:50.393Z,18.30
2019-04-05T09:36:19.722Z,18.65
2019-04-05T09:38:49.113Z,16.80
2019-04-05T09:41:20.755Z,15.72
2019-04-05T09:43:51.562Z,17.45
2019-04-05T09:46:20.935Z,17.80
2019-04-05T09:48:50.258Z,19.50
2019-04-05T09:51:19.617Z,17.82
2019-04-05T09:53:48.943Z,26.27
2019-04-05T09:56:18.279Z,19.40
2019-04-05T09:58:47.591Z,18.87
2019-04-05T10:01:17.017Z,18.92
2019-04-05T10:03:46.458Z,16.20
2019-04-05T10:06:20.053Z,17.27
2019-04-05T10:11:18.492Z,27.50
2019-04-05T10:13:47.744Z,27.90
2019-04-05T10:16:17.055Z,20.52
2019-04-05T10:18:46.470Z,18.87
2019-04-05T10:21:15.827Z,19.95
2019-04-05T10:23:45.167Z,19.30
2019-04-05T10:26:14.466Z,19.50
2019-04-05T10:28:43.798Z,22.02
2019-04-05T10:31:13.101Z,22.20
2019-04-05T10:33:42.419Z,20.43
2019-04-05T10:36:11.733Z,21.82
2019-04-05T10:38:41.050Z,20.62
2019-04-05T10:41:10.579Z,19.73
2019-04-05T10:43:39.948Z,22.50
2019-04-05T10:46:09.633Z,20.60
2019-04-05T10:48:38.989Z,24.27
2019-04-05T10:51:08.323Z,29.05
2019-04-05T10:53:45.808Z,30.40
2019-04-05T10:56:24.506Z,30.77
2019-04-05T10:58:55.285Z,28.30
2019-04-05T11:01:24.615Z,27.05
2019-04-05T11:03:53.971Z,26.93
2019-04-05T11:06:23.404Z,32.70
2019-04-05T11:08:52.843Z,31.97
2019-04-05T11:11:22.154Z,35.35
2019-04-05T11:13:51.531Z,31.55
2019-04-05T11:16:33.047Z,33.35
2019-04-05T11:19:02.688Z,42.00
2019-04-05T11:21:32.003Z,33.18
2019-04-05T11:24:01.423Z,34.00
2019-04-05T11:26:30.767Z,35.35
2019-04-05T11:29:00.104Z,30.88
2019-04-05T11:31:29.517Z,28.52
2019-04-05T11:33:59.334Z,28.73
2019-04-05T11:36:28.829Z,88.93
2019-04-05T11:38:58.167Z,26.77
2019-04-05T11:41:28.603Z,32.93
2019-04-05T11:44:01.378Z,26.75
2019-04-05T11:46:32.093Z,27.10
2019-04-05T11:49:03.737Z,26.75
2019-04-05T11:51:33.917Z,27.15
2019-04-05T11:54:03.257Z,28.90
2019-04-05T11:56:32.607Z,32.08
2019-04-05T11:59:03.547Z,28.80
2019-04-05T12:01:41.360Z,27.10
2019-04-05T12:04:10.734Z,26.23
2019-04-05T12:06:40.061Z,31.23
2019-04-05T12:09:09.566Z,34.20
2019-04-05T12:11:38.942Z,31.07
2019-04-05T12:14:08.274Z,33.00
2019-04-05T12:16:37.609Z,33.33
2019-04-05T12:19:06.999Z,35.75
2019-04-05T12:21:36.365Z,33.95
2019-04-05T12:24:05.719Z,32.58
2019-04-05T12:26:35.224Z,39.53
2019-04-05T12:29:05.899Z,39.65
2019-04-05T12:31:35.424Z,39.18
2019-04-05T12:34:04.938Z,33.53
2019-04-05T12:36:34.317Z,30.85
2019-04-05T12:39:07.660Z,33.67
2019-04-05T12:41:34.890Z,31.80
2019-04-05T12:44:04.452Z,33.67
2019-04-05T12:46:33.724Z,34.73
2019-04-05T12:49:03.017Z,33.73
2019-04-05T12:51:57.602Z,39.45
2019-04-05T12:54:26.937Z,30.45
2019-04-05T12:56:58.604Z,29.07
2019-04-05T12:59:31.302Z,30.62
2019-04-05T13:04:29.323Z,35.38
2019-04-05T13:06:58.623Z,37.53
2019-04-05T13:09:27.977Z,35.78
2019-04-05T13:11:57.538Z,32.58
2019-04-05T13:14:28.949Z,30.88
2019-04-05T13:17:01.740Z,29.80
2019-04-05T13:19:30.729Z,32.10
2019-04-05T13:22:00.617Z,29.12
2019-04-05T13:24:31.569Z,31.85
2019-04-05T13:27:02.113Z,33.42
2019-04-05T13:29:32.919Z,31.82
2019-04-05T13:32:22.326Z,32.08
2019-04-05T13:34:55.681Z,33.75
2019-04-05T13:37:39.717Z,30.62
2019-04-05T13:40:29.609Z,29.10
2019-04-05T13:43:01.660Z,25.75
2019-04-05T13:45:46.522Z,29.50
2019-04-05T13:48:12.472Z,28.32
2019-04-05T13:50:42.189Z,29.85
2019-04-05T13:53:13.472Z,31.68
2019-04-05T13:55:47.604Z,32.03
2019-04-05T13:58:22.877Z,33.98
2019-04-05T14:00:54.071Z,34.90
2019-04-05T14:04:45.945Z,37.10
2019-04-05T14:06:46.864Z,31.30
2019-04-05T14:09:21.424Z,36.23
2019-04-05T14:11:53.967Z,31.17
2019-04-05T14:14:29.032Z,32.83
2019-04-05T14:17:50.754Z,32.42
2019-04-05T14:22:44.253Z,42.15
2019-04-05T14:25:15.714Z,35.33
2019-04-05T14:28:52.887Z,31.42
2019-04-05T14:30:38.498Z,27.70
2019-04-05T14:33:07.943Z,27.48
2019-04-05T14:35:37.457Z,25.82
2019-04-05T14:38:06.928Z,24.57
2019-04-05T14:40:47.454Z,25.57
2019-04-05T14:44:14.615Z,27.27
2019-04-05T14:45:41.076Z,27.55
2019-04-05T14:48:12.089Z,28.15
2019-04-05T14:50:43.917Z,28.35
2019-04-05T14:53:16.597Z,29.37
2019-04-05T14:55:47.578Z,27.75
2019-04-05T14:58:19.289Z,27.05
2019-04-05T15:00:48.471Z,23.27
2019-04-05T15:03:25.011Z,26.20
2019-04-05T15:06:06.026Z,25.92
2019-04-05T15:08:35.553Z,25.55
2019-04-05T15:11:05.000Z,26.77
2019-04-05T15:13:34.393Z,27.05
2019-04-05T15:16:03.851Z,26.10
2019-04-05T15:18:33.482Z,25.43
2019-04-05T15:21:05.611Z,25.95
2019-04-05T15:23:34.034Z,24.45
2019-04-05T15:26:03.389Z,26.23
2019-04-05T15:28:32.791Z,26.05
2019-04-05T15:31:03.675Z,25.25
2019-04-05T15:33:33.412Z,28.65
2019-04-05T15:36:04.408Z,27.15
2019-04-05T15:38:36.661Z,27.13
2019-04-05T15:43:34.432Z,27.27
2019-04-05T15:46:03.985Z,23.77
2019-04-05T15:48:34.265Z,26.37
2019-04-05T15:51:03.746Z,28.75
2019-04-05T15:53:33.249Z,27.32
2019-04-05T15:56:04.332Z,26.10
2019-04-05T15:58:34.768Z,24.20
2019-04-05T16:01:10.969Z,26.02
2019-04-05T16:03:44.014Z,27.80
2019-04-05T16:06:24.821Z,26.42
2019-04-05T16:08:54.215Z,28.80
2019-04-05T16:11:23.575Z,26.35
2019-04-05T16:13:53.006Z,26.17
2019-04-05T16:16:25.014Z,29.75
2019-04-05T16:18:54.386Z,29.98
2019-04-05T16:21:23.769Z,29.63
2019-04-05T16:23:53.206Z,27.37
2019-04-05T16:26:22.587Z,29.97
2019-04-05T16:28:52.055Z,31.00
2019-04-05T16:31:21.426Z,31.15
2019-04-05T16:33:50.826Z,32.40
2019-04-05T16:36:26.200Z,30.62
2019-04-05T16:38:51.202Z,32.90
2019-04-05T16:41:24.864Z,32.05
2019-04-05T16:43:59.127Z,29.27
2019-04-05T16:54:02.972Z,33.20
2019-04-05T16:56:32.562Z,29.65
2019-04-05T16:59:02.006Z,27.58
2019-04-05T17:01:31.394Z,27.17
2019-04-05T17:04:00.702Z,28.80
2019-04-05T17:06:30.077Z,30.05
2019-04-05T17:08:59.398Z,29.50
2019-04-05T17:11:28.742Z,28.27
2019-04-05T17:14:23.356Z,27.65
2019-04-05T17:16:53.153Z,27.52
2019-04-05T17:19:22.542Z,31.97
2019-04-05T17:21:51.915Z,31.93
2019-04-05T17:24:21.255Z,31.42
2019-04-05T17:26:50.759Z,30.85
2019-04-05T17:29:21.719Z,32.17
2019-04-05T17:31:51.105Z,33.33
2019-04-05T17:34:20.488Z,31.20
2019-04-05T17:36:50.006Z,33.50
2019-04-05T17:39:19.425Z,33.98
2019-04-05T17:41:48.993Z,33.88
2019-04-05T17:44:18.379Z,47.43
2019-04-05T17:46:47.905Z,49.55
2019-04-05T17:49:17.316Z,46.33
2019-04-05T17:51:46.723Z,43.35
2019-04-05T17:54:16.091Z,37.78
2019-04-05T17:56:46.769Z,40.15
2019-04-05T17:59:16.527Z,39.38
2019-04-05T18:01:46.039Z,41.63
2019-04-05T18:04:15.422Z,41.05
2019-04-05T18:06:44.805Z,40.23
2019-04-05T18:09:14.132Z,42.75
2019-04-05T18:11:43.510Z,42.05
2019-04-05T18:14:12.865Z,41.45
2019-04-05T18:16:46.270Z,43.50
2019-04-05T18:19:15.638Z,47.38
2019-04-05T18:21:44.993Z,44.42
2019-04-05T18:24:14.402Z,42.20
2019-04-05T18:26:43.818Z,42.90
2019-04-05T18:29:13.153Z,46.37
2019-04-05T18:31:42.498Z,37.42
2019-04-05T18:34:11.872Z,41.35
2019-04-05T18:36:41.240Z,40.73
2019-04-05T18:39:11.293Z,44.58
2019-04-05T18:41:40.682Z,45.67
2019-04-05T18:44:10.023Z,45.38
2019-04-05T18:46:39.345Z,50.50
2019-04-05T18:49:08.727Z,49.33
2019-04-05T18:51:38.095Z,52.38
2019-04-05T18:54:07.439Z,49.98
2019-04-05T18:56:36.778Z,62.53
2019-04-05T18:59:06.144Z,50.60
2019-04-05T19:01:35.931Z,52.17
2019-04-05T19:04:05.748Z,55.38
2019-04-05T19:06:35.222Z,49.30
2019-04-05T19:09:06.557Z,49.90
2019-04-05T19:11:35.979Z,57.40
2019-04-05T19:14:05.380Z,53.45
2019-04-05T19:16:34.735Z,56.80
2019-04-05T19:19:04.146Z,55.20
2019-04-05T19:21:33.507Z,52.23
2019-04-05T19:24:02.928Z,57.80
2019-04-05T19:26:32.298Z,56.33
2019-04-05T19:29:01.654Z,61.37
2019-04-05T19:49:11.896Z,59.08
2019-04-05T19:51:41.348Z,62.15
2019-04-05T19:54:10.723Z,56.37
2019-04-05T19:56:40.102Z,57.95
2019-04-05T19:59:09.437Z,61.37
2019-04-05T20:01:38.789Z,57.17
2019-04-05T20:04:08.165Z,58.70
2019-04-05T20:06:37.567Z,61.53
2019-04-05T20:09:08.054Z,63.85
2019-04-05T20:11:37.498Z,62.75
2019-04-05T20:14:06.866Z,66.28
2019-04-05T20:16:36.252Z,66.80
2019-04-05T20:19:05.636Z,66.10
2019-04-05T20:21:35.119Z,66.92
2019-04-05T20:24:13.768Z,65.75
2019-04-05T20:26:35.687Z,65.05
2019-04-05T20:29:05.040Z,64.65
2019-04-05T20:31:34.396Z,66.53
2019-04-05T20:34:03.839Z,67.80
2019-04-05T20:36:33.211Z,68.00
2019-04-05T20:39:02.813Z,70.25
2019-04-05T20:41:32.124Z,70.65
2019-04-05T20:44:01.552Z,68.85
2019-04-05T20:46:30.951Z,71.12
2019-04-05T20:49:00.323Z,69.17
2019-04-05T20:51:29.700Z,66.77
2019-04-05T20:53:59.152Z,67.15
2019-04-05T20:56:28.508Z,74.55
2019-04-05T20:58:57.948Z,68.10
2019-04-05T21:01:27.324Z,71.28
2019-04-05T21:03:56.758Z,73.75
2019-04-05T21:06:26.149Z,70.95
2019-04-05T21:08:55.694Z,68.90
2019-04-05T21:11:27.130Z,74.22
2019-04-05T21:13:56.231Z,72.62
2019-04-05T21:16:25.639Z,74.67
2019-04-05T21:18:55.175Z,79.50
2019-04-05T21:21:24.611Z,81.25
2019-04-05T21:23:55.455Z,73.90
2019-04-05T21:26:24.896Z,73.87
2019-04-05T21:28:55.110Z,75.45
2019-04-05T21:31:24.506Z,71.90
2019-04-05T21:33:54.146Z,76.17
2019-04-05T21:36:23.506Z,75.05
2019-04-05T21:38:53.141Z,71.15
2019-04-05T21:41:22.535Z,73.57
2019-04-05T21:43:52.132Z,68.87
2019-04-05T21:46:21.529Z,68.37
2019-04-05T21:48:50.923Z,69.40
2019-04-05T21:51:20.346Z,70.70
2019-04-05T21:53:49.743Z,69.90
2019-04-05T21:56:19.077Z,79.50
2019-04-05T21:58:48.436Z,72.40
2019-04-05T22:01:18.071Z,69.22
2019-04-05T22:03:47.423Z,69.53
2019-04-05T22:06:16.806Z,70.52
2019-04-05T22:08:46.176Z,75.47
2019-04-05T22:11:15.604Z,70.45
2019-04-05T22:13:44.973Z,71.80
2019-04-05T22:16:14.396Z,72.15
2019-04-05T22:18:43.795Z,74.80
2019-04-05T22:21:13.210Z,77.50
2019-04-05T22:23:42.581Z,76.57
2019-04-05T22:26:11.997Z,76.00
2019-04-05T22:28:41.299Z,71.77
2019-04-05T22:31:10.640Z,80.90
2019-04-05T22:33:39.995Z,73.35
2019-04-05T22:36:09.337Z,80.45
2019-04-05T22:38:38.729Z,79.07
2019-04-05T22:41:08.196Z,76.92
2019-04-05T22:43:37.549Z,82.02
2019-04-05T22:46:06.895Z,78.30
2019-04-05T22:48:36.231Z,77.72
2019-04-05T22:51:05.658Z,84.42
2019-04-05T22:53:35.031Z,85.45
2019-04-05T22:56:04.541Z,86.78
2019-04-05T22:58:33.946Z,83.17
2019-04-05T23:01:03.389Z,91.97
2019-04-05T23:03:32.804Z,86.80
2019-04-05T23:06:02.265Z,86.92
2019-04-05T23:08:31.657Z,92.65
2019-04-05T23:11:01.002Z,91.57
2019-04-05T23:13:30.384Z,91.42
2019-04-05T23:15:59.880Z,90.50
2019-04-05T23:18:29.303Z,94.62
2019-04-05T23:20:58.733Z,97.95
2019-04-05T23:23:28.129Z,101.72
2019-04-05T23:25:57.504Z,96.02
2019-04-05T23:28:27.057Z,106.37
2019-04-05T23:30:57.934Z,109.67
2019-04-05T23:33:27.361Z,110.75
2019-04-05T23:35:56.881Z,108.05
2019-04-05T23:38:26.237Z,106.17
2019-04-05T23:40:55.595Z,114.97
2019-04-05T23:43:25.051Z,106.67
2019-04-05T23:45:54.493Z,107.83
2019-04-05T23:48:23.870Z,118.67
2019-04-05T23:50:53.309Z,109.80
2019-04-05T23:53:22.721Z,106.35
2019-04-05T23:55:52.192Z,118.28
2019-04-05T23:58:21.568Z,110.60
